sensor_id;sensor_type;location;lat;lon;timestamp;temperature;humidity
18593;DHT22;9426;54.118;17.948;2023-04-04T00:03:13;0.40;99.90
18593;DHT22;9426;54.118;17.948;2023-04-04T00:08:41;0.40;99.90
18593;DHT22;9426;54.118;17.948;2023-04-04T00:14:04;0.40;99.90
18593;DHT22;9426;54.118;17.948;2023-04-04T00:19:29;0.40;99.90
18593;DHT22;9426;54.118;17.948;2023-04-04T00:24:53;0.40;99.90
18593;DHT22;9426;54.118;17.948;2023-04-04T00:30:16;0.30;99.90
18593;DHT22;9426;54.118;17.948;2023-04-04T00:35:41;0.40;99.90
18593;DHT22;9426;54.118;17.948;2023-04-04T00:41:05;0.20;99.90
18593;DHT22;9426;54.118;17.948;2023-04-04T00:46:29;0.20;99.90
18593;DHT22;9426;54.118;17.948;2023-04-04T00:51:54;0.10;99.90
18593;DHT22;9426;54.118;17.948;2023-04-04T00:57:17;0.20;99.90
18593;DHT22;9426;54.118;17.948;2023-04-04T01:02:41;0.20;99.90
18593;DHT22;9426;54.118;17.948;2023-04-04T01:08:06;0.20;99.90
18593;DHT22;9426;54.118;17.948;2023-04-04T01:13:31;0.30;99.90
18593;DHT22;9426;54.118;17.948;2023-04-04T01:18:56;0.30;99.90
18593;DHT22;9426;54.118;17.948;2023-04-04T01:24:23;0.30;99.90
18593;DHT22;9426;54.118;17.948;2023-04-04T01:29:53;0.20;99.90
18593;DHT22;9426;54.118;17.948;2023-04-04T01:35:24;0.30;99.90
18593;DHT22;9426;54.118;17.948;2023-04-04T01:40:49;0.20;99.90
18593;DHT22;9426;54.118;17.948;2023-04-04T01:46:17;0.20;99.90
18593;DHT22;9426;54.118;17.948;2023-04-04T01:51:43;0.10;99.90
18593;DHT22;9426;54.118;17.948;2023-04-04T01:57:07;0.00;99.90
18593;DHT22;9426;54.118;17.948;2023-04-04T02:02:32;-0.20;99.90
18593;DHT22;9426;54.118;17.948;2023-04-04T02:07:55;-0.40;99.90
18593;DHT22;9426;54.118;17.948;2023-04-04T02:13:26;-0.60;99.90
18593;DHT22;9426;54.118;17.948;2023-04-04T02:18:53;-0.70;99.90
18593;DHT22;9426;54.118;17.948;2023-04-04T02:24:17;-0.80;99.90
18593;DHT22;9426;54.118;17.948;2023-04-04T02:29:41;-1.00;99.90
18593;DHT22;9426;54.118;17.948;2023-04-04T02:35:07;-1.20;99.90
18593;DHT22;9426;54.118;17.948;2023-04-04T02:40:32;-1.40;99.90
18593;DHT22;9426;54.118;17.948;2023-04-04T02:45:56;-1.40;99.90
18593;DHT22;9426;54.118;17.948;2023-04-04T02:51:23;-1.50;99.90
18593;DHT22;9426;54.118;17.948;2023-04-04T02:56:47;-1.30;99.90
18593;DHT22;9426;54.118;17.948;2023-04-04T03:02:11;-1.40;99.90
18593;DHT22;9426;54.118;17.948;2023-04-04T03:07:36;-1.60;99.90
18593;DHT22;9426;54.118;17.948;2023-04-04T03:12:59;-1.70;99.90
18593;DHT22;9426;54.118;17.948;2023-04-04T03:18:25;-1.70;99.90
18593;DHT22;9426;54.118;17.948;2023-04-04T03:23:50;-1.80;99.90
18593;DHT22;9426;54.118;17.948;2023-04-04T03:29:14;-1.90;99.90
18593;DHT22;9426;54.118;17.948;2023-04-04T03:34:38;-1.90;99.90
18593;DHT22;9426;54.118;17.948;2023-04-04T03:40:04;-1.90;99.90
18593;DHT22;9426;54.118;17.948;2023-04-04T03:50:52;-2.10;99.90
18593;DHT22;9426;54.118;17.948;2023-04-04T04:01:41;-2.30;99.90
18593;DHT22;9426;54.118;17.948;2023-04-04T04:07:04;-2.10;99.90
18593;DHT22;9426;54.118;17.948;2023-04-04T04:12:30;-2.20;99.90
18593;DHT22;9426;54.118;17.948;2023-04-04T04:17:53;-2.30;99.90
18593;DHT22;9426;54.118;17.948;2023-04-04T04:23:20;-2.30;99.90
18593;DHT22;9426;54.118;17.948;2023-04-04T04:28:46;-2.40;99.90
18593;DHT22;9426;54.118;17.948;2023-04-04T04:34:16;-2.50;99.90
18593;DHT22;9426;54.118;17.948;2023-04-04T04:39:41;-2.60;99.90
18593;DHT22;9426;54.118;17.948;2023-04-04T04:45:26;-2.70;99.90
18593;DHT22;9426;54.118;17.948;2023-04-04T04:50:59;-2.60;99.90
18593;DHT22;9426;54.118;17.948;2023-04-04T04:56:32;-2.50;99.90
18593;DHT22;9426;54.118;17.948;2023-04-04T05:02:02;-2.10;99.90
18593;DHT22;9426;54.118;17.948;2023-04-04T05:07:33;-1.60;99.90
18593;DHT22;9426;54.118;17.948;2023-04-04T05:12:58;-1.10;99.90
18593;DHT22;9426;54.118;17.948;2023-04-04T05:18:47;-1.00;99.90
18593;DHT22;9426;54.118;17.948;2023-04-04T05:24:28;-0.90;99.90
18593;DHT22;9426;54.118;17.948;2023-04-04T05:29:53;-0.90;99.90
18593;DHT22;9426;54.118;17.948;2023-04-04T05:35:21;-0.80;99.90
18593;DHT22;9426;54.118;17.948;2023-04-04T05:40:48;-0.80;99.90
18593;DHT22;9426;54.118;17.948;2023-04-04T05:46:12;-0.80;99.90
18593;DHT22;9426;54.118;17.948;2023-04-04T05:51:42;-0.60;99.90
18593;DHT22;9426;54.118;17.948;2023-04-04T05:57:08;-0.50;99.90
18593;DHT22;9426;54.118;17.948;2023-04-04T06:02:39;-0.30;99.90
18593;DHT22;9426;54.118;17.948;2023-04-04T06:08:10;-0.10;99.90
18593;DHT22;9426;54.118;17.948;2023-04-04T06:13:33;0.00;99.90
18593;DHT22;9426;54.118;17.948;2023-04-04T06:19:02;0.20;99.90
18593;DHT22;9426;54.118;17.948;2023-04-04T06:24:27;0.40;99.90
18593;DHT22;9426;54.118;17.948;2023-04-04T06:29:51;0.60;99.90
18593;DHT22;9426;54.118;17.948;2023-04-04T06:35:17;0.80;99.90
18593;DHT22;9426;54.118;17.948;2023-04-04T06:40:51;0.90;99.90
18593;DHT22;9426;54.118;17.948;2023-04-04T06:46:14;1.10;99.90
18593;DHT22;9426;54.118;17.948;2023-04-04T06:51:39;1.20;99.90
18593;DHT22;9426;54.118;17.948;2023-04-04T06:57:04;1.50;99.90
18593;DHT22;9426;54.118;17.948;2023-04-04T07:02:28;1.80;99.90
18593;DHT22;9426;54.118;17.948;2023-04-04T07:07:51;2.10;99.90
18593;DHT22;9426;54.118;17.948;2023-04-04T07:13:17;2.40;99.90
18593;DHT22;9426;54.118;17.948;2023-04-04T07:18:41;2.70;99.90
18593;DHT22;9426;54.118;17.948;2023-04-04T07:24:05;2.80;99.90
18593;DHT22;9426;54.118;17.948;2023-04-04T07:29:30;2.80;99.90
18593;DHT22;9426;54.118;17.948;2023-04-04T07:34:54;2.80;99.90
18593;DHT22;9426;54.118;17.948;2023-04-04T07:40:18;2.90;99.90
18593;DHT22;9426;54.118;17.948;2023-04-04T07:45:44;2.50;99.90
18593;DHT22;9426;54.118;17.948;2023-04-04T07:51:07;2.30;99.90
18593;DHT22;9426;54.118;17.948;2023-04-04T07:56:31;1.90;99.90
18593;DHT22;9426;54.118;17.948;2023-04-04T08:01:56;1.70;99.90
18593;DHT22;9426;54.118;17.948;2023-04-04T08:07:19;1.70;99.90
18593;DHT22;9426;54.118;17.948;2023-04-04T08:12:43;1.70;99.90
18593;DHT22;9426;54.118;17.948;2023-04-04T08:18:08;1.90;99.90
18593;DHT22;9426;54.118;17.948;2023-04-04T08:23:32;1.90;99.90
18593;DHT22;9426;54.118;17.948;2023-04-04T08:28:56;2.00;99.90
18593;DHT22;9426;54.118;17.948;2023-04-04T08:34:21;2.40;99.90
18593;DHT22;9426;54.118;17.948;2023-04-04T08:39:44;2.20;99.90
18593;DHT22;9426;54.118;17.948;2023-04-04T08:45:09;2.80;99.90
18593;DHT22;9426;54.118;17.948;2023-04-04T08:50:35;3.00;99.90
18593;DHT22;9426;54.118;17.948;2023-04-04T08:56:00;3.10;99.90
18593;DHT22;9426;54.118;17.948;2023-04-04T09:01:24;2.60;99.90
18593;DHT22;9426;54.118;17.948;2023-04-04T09:06:52;2.70;99.90
18593;DHT22;9426;54.118;17.948;2023-04-04T09:12:16;3.00;99.90
18593;DHT22;9426;54.118;17.948;2023-04-04T09:17:40;3.50;99.90
18593;DHT22;9426;54.118;17.948;2023-04-04T09:23:09;3.70;99.90
18593;DHT22;9426;54.118;17.948;2023-04-04T09:28:34;4.00;99.90
18593;DHT22;9426;54.118;17.948;2023-04-04T09:33:58;4.20;99.90
18593;DHT22;9426;54.118;17.948;2023-04-04T09:39:23;4.50;99.40
18593;DHT22;9426;54.118;17.948;2023-04-04T09:44:47;4.90;99.90
18593;DHT22;9426;54.118;17.948;2023-04-04T09:50:20;5.30;96.60
18593;DHT22;9426;54.118;17.948;2023-04-04T09:55:51;4.40;96.80
18593;DHT22;9426;54.118;17.948;2023-04-04T10:01:14;4.00;96.90
18593;DHT22;9426;54.118;17.948;2023-04-04T10:06:42;4.30;96.40
18593;DHT22;9426;54.118;17.948;2023-04-04T10:12:11;4.90;93.80
18593;DHT22;9426;54.118;17.948;2023-04-04T10:17:36;5.70;93.20
18593;DHT22;9426;54.118;17.948;2023-04-04T10:23:00;5.50;91.70
18593;DHT22;9426;54.118;17.948;2023-04-04T10:28:26;4.80;91.50
18593;DHT22;9426;54.118;17.948;2023-04-04T10:33:59;4.70;94.00
18593;DHT22;9426;54.118;17.948;2023-04-04T10:39:31;5.40;89.20
18593;DHT22;9426;54.118;17.948;2023-04-04T10:44:57;6.10;90.00
18593;DHT22;9426;54.118;17.948;2023-04-04T10:50:29;5.70;91.70
18593;DHT22;9426;54.118;17.948;2023-04-04T10:55:55;4.90;96.30
18593;DHT22;9426;54.118;17.948;2023-04-04T11:01:21;5.70;98.10
18593;DHT22;9426;54.118;17.948;2023-04-04T11:07:12;5.50;96.90
18593;DHT22;9426;54.118;17.948;2023-04-04T11:12:42;4.90;97.90
18593;DHT22;9426;54.118;17.948;2023-04-04T11:18:07;6.10;97.40
18593;DHT22;9426;54.118;17.948;2023-04-04T11:29:49;6.70;90.80
18593;DHT22;9426;54.118;17.948;2023-04-04T11:35:16;5.90;93.10
18593;DHT22;9426;54.118;17.948;2023-04-04T11:40:41;5.90;94.40
18593;DHT22;9426;54.118;17.948;2023-04-04T11:46:05;9.10;83.60
18593;DHT22;9426;54.118;17.948;2023-04-04T11:51:32;7.70;81.30
18593;DHT22;9426;54.118;17.948;2023-04-04T11:56:55;6.50;90.00
18593;DHT22;9426;54.118;17.948;2023-04-04T12:02:20;8.40;82.90
18593;DHT22;9426;54.118;17.948;2023-04-04T12:07:46;7.30;83.60
18593;DHT22;9426;54.118;17.948;2023-04-04T12:13:09;7.30;83.60
18593;DHT22;9426;54.118;17.948;2023-04-04T12:18:34;8.20;78.50
18593;DHT22;9426;54.118;17.948;2023-04-04T12:24:00;6.00;88.10
18593;DHT22;9426;54.118;17.948;2023-04-04T12:29:25;8.60;79.70
18593;DHT22;9426;54.118;17.948;2023-04-04T12:34:49;7.70;80.00
18593;DHT22;9426;54.118;17.948;2023-04-04T12:40:14;5.90;86.70
18593;DHT22;9426;54.118;17.948;2023-04-04T12:45:38;6.40;86.40
18593;DHT22;9426;54.118;17.948;2023-04-04T12:51:04;6.70;86.50
18593;DHT22;9426;54.118;17.948;2023-04-04T12:56:31;7.30;84.10
18593;DHT22;9426;54.118;17.948;2023-04-04T13:01:54;7.90;82.40
18593;DHT22;9426;54.118;17.948;2023-04-04T13:07:23;9.70;76.70
18593;DHT22;9426;54.118;17.948;2023-04-04T13:12:54;10.40;69.80
18593;DHT22;9426;54.118;17.948;2023-04-04T13:18:20;9.60;67.70
18593;DHT22;9426;54.118;17.948;2023-04-04T13:23:44;8.10;75.00
18593;DHT22;9426;54.118;17.948;2023-04-04T13:29:09;7.10;79.00
18593;DHT22;9426;54.118;17.948;2023-04-04T13:34:33;9.00;74.00
18593;DHT22;9426;54.118;17.948;2023-04-04T13:39:57;8.70;74.30
18593;DHT22;9426;54.118;17.948;2023-04-04T13:45:21;9.50;69.80
18593;DHT22;9426;54.118;17.948;2023-04-04T13:50:46;9.60;67.70
18593;DHT22;9426;54.118;17.948;2023-04-04T13:56:11;7.40;73.90
18593;DHT22;9426;54.118;17.948;2023-04-04T14:01:40;6.80;78.90
18593;DHT22;9426;54.118;17.948;2023-04-04T14:07:03;7.00;75.10
18593;DHT22;9426;54.118;17.948;2023-04-04T14:12:27;6.90;78.50
18593;DHT22;9426;54.118;17.948;2023-04-04T14:17:52;9.00;70.20
18593;DHT22;9426;54.118;17.948;2023-04-04T14:23:16;7.30;74.80
18593;DHT22;9426;54.118;17.948;2023-04-04T14:28:39;7.90;75.20
18593;DHT22;9426;54.118;17.948;2023-04-04T14:34:04;8.70;71.30
18593;DHT22;9426;54.118;17.948;2023-04-04T14:39:28;7.10;72.70
18593;DHT22;9426;54.118;17.948;2023-04-04T14:44:51;6.00;77.10
18593;DHT22;9426;54.118;17.948;2023-04-04T14:50:17;5.30;79.90
18593;DHT22;9426;54.118;17.948;2023-04-04T14:55:41;5.40;83.00
18593;DHT22;9426;54.118;17.948;2023-04-04T15:01:05;5.90;78.60
18593;DHT22;9426;54.118;17.948;2023-04-04T15:06:30;5.20;81.00
18593;DHT22;9426;54.118;17.948;2023-04-04T15:11:57;4.90;82.80
18593;DHT22;9426;54.118;17.948;2023-04-04T15:17:21;5.00;83.20
18593;DHT22;9426;54.118;17.948;2023-04-04T15:22:46;5.50;83.60
18593;DHT22;9426;54.118;17.948;2023-04-04T15:28:09;7.10;79.40
18593;DHT22;9426;54.118;17.948;2023-04-04T15:33:53;7.90;73.10
18593;DHT22;9426;54.118;17.948;2023-04-04T15:39:31;6.50;76.70
18593;DHT22;9426;54.118;17.948;2023-04-04T15:44:57;5.80;80.80
18593;DHT22;9426;54.118;17.948;2023-04-04T15:50:21;6.70;79.50
18593;DHT22;9426;54.118;17.948;2023-04-04T15:55:46;8.00;74.50
18593;DHT22;9426;54.118;17.948;2023-04-04T16:01:10;6.80;77.30
18593;DHT22;9426;54.118;17.948;2023-04-04T16:06:34;6.00;81.40
18593;DHT22;9426;54.118;17.948;2023-04-04T16:12:00;5.40;83.60
18593;DHT22;9426;54.118;17.948;2023-04-04T16:17:24;4.80;84.00
18593;DHT22;9426;54.118;17.948;2023-04-04T16:22:47;4.20;86.50
18593;DHT22;9426;54.118;17.948;2023-04-04T16:28:12;3.80;86.10
18593;DHT22;9426;54.118;17.948;2023-04-04T16:33:36;3.50;87.60
18593;DHT22;9426;54.118;17.948;2023-04-04T16:39:19;3.20;90.20
18593;DHT22;9426;54.118;17.948;2023-04-04T16:44:46;3.30;91.70
18593;DHT22;9426;54.118;17.948;2023-04-04T16:50:10;3.40;91.60
18593;DHT22;9426;54.118;17.948;2023-04-04T16:55:34;3.30;92.90
18593;DHT22;9426;54.118;17.948;2023-04-04T17:00:59;3.00;93.70
18593;DHT22;9426;54.118;17.948;2023-04-04T17:06:23;2.70;96.30
18593;DHT22;9426;54.118;17.948;2023-04-04T17:11:48;2.50;98.90
18593;DHT22;9426;54.118;17.948;2023-04-04T17:17:13;2.30;99.90
18593;DHT22;9426;54.118;17.948;2023-04-04T17:22:36;2.10;99.90
18593;DHT22;9426;54.118;17.948;2023-04-04T17:28:01;1.70;99.90
18593;DHT22;9426;54.118;17.948;2023-04-04T17:33:27;1.40;99.90
18593;DHT22;9426;54.118;17.948;2023-04-04T17:39:02;1.10;99.90
18593;DHT22;9426;54.118;17.948;2023-04-04T17:44:25;0.90;99.90
18593;DHT22;9426;54.118;17.948;2023-04-04T17:49:52;0.70;99.90
18593;DHT22;9426;54.118;17.948;2023-04-04T17:55:16;0.50;99.90
18593;DHT22;9426;54.118;17.948;2023-04-04T18:00:40;0.30;99.90
18593;DHT22;9426;54.118;17.948;2023-04-04T18:06:08;0.10;99.90
18593;DHT22;9426;54.118;17.948;2023-04-04T18:11:33;-0.10;99.90
18593;DHT22;9426;54.118;17.948;2023-04-04T18:16:58;-0.20;99.90
18593;DHT22;9426;54.118;17.948;2023-04-04T18:22:23;-0.30;99.90
18593;DHT22;9426;54.118;17.948;2023-04-04T18:27:47;-0.40;99.90
18593;DHT22;9426;54.118;17.948;2023-04-04T18:33:11;-0.60;99.90
18593;DHT22;9426;54.118;17.948;2023-04-04T18:38:36;-0.70;99.90
18593;DHT22;9426;54.118;17.948;2023-04-04T18:44:00;-0.80;99.90
18593;DHT22;9426;54.118;17.948;2023-04-04T18:49:23;-1.00;99.90
18593;DHT22;9426;54.118;17.948;2023-04-04T18:54:49;-1.00;99.90
18593;DHT22;9426;54.118;17.948;2023-04-04T19:00:14;-1.10;99.90
18593;DHT22;9426;54.118;17.948;2023-04-04T19:05:39;-1.20;99.90
18593;DHT22;9426;54.118;17.948;2023-04-04T19:11:08;-1.40;99.90
18593;DHT22;9426;54.118;17.948;2023-04-04T19:16:36;-1.50;99.90
18593;DHT22;9426;54.118;17.948;2023-04-04T19:22:03;-1.50;99.90
18593;DHT22;9426;54.118;17.948;2023-04-04T19:27:38;-1.60;99.90
18593;DHT22;9426;54.118;17.948;2023-04-04T19:33:12;-1.70;99.90
18593;DHT22;9426;54.118;17.948;2023-04-04T19:38:37;-1.70;99.90
18593;DHT22;9426;54.118;17.948;2023-04-04T19:44:19;-1.80;99.90
18593;DHT22;9426;54.118;17.948;2023-04-04T19:49:45;-1.80;99.90
18593;DHT22;9426;54.118;17.948;2023-04-04T19:55:09;-1.90;99.90
18593;DHT22;9426;54.118;17.948;2023-04-04T20:00:34;-1.90;99.90
18593;DHT22;9426;54.118;17.948;2023-04-04T20:06:01;-2.00;99.90
18593;DHT22;9426;54.118;17.948;2023-04-04T20:11:28;-2.00;99.90
18593;DHT22;9426;54.118;17.948;2023-04-04T20:16:53;-2.00;99.90
18593;DHT22;9426;54.118;17.948;2023-04-04T20:22:17;-2.00;99.90
18593;DHT22;9426;54.118;17.948;2023-04-04T20:27:41;-2.10;99.90
18593;DHT22;9426;54.118;17.948;2023-04-04T20:33:29;-2.20;99.90
18593;DHT22;9426;54.118;17.948;2023-04-04T20:38:53;-2.20;99.90
18593;DHT22;9426;54.118;17.948;2023-04-04T20:44:18;-2.30;99.90
18593;DHT22;9426;54.118;17.948;2023-04-04T20:49:42;-2.30;99.90
18593;DHT22;9426;54.118;17.948;2023-04-04T20:55:06;-2.40;99.90
18593;DHT22;9426;54.118;17.948;2023-04-04T21:00:40;-2.30;99.90
18593;DHT22;9426;54.118;17.948;2023-04-04T21:06:15;-2.40;99.90
18593;DHT22;9426;54.118;17.948;2023-04-04T21:11:38;-2.50;99.90
18593;DHT22;9426;54.118;17.948;2023-04-04T21:17:05;-2.60;99.90
18593;DHT22;9426;54.118;17.948;2023-04-04T21:22:31;-2.70;99.90
18593;DHT22;9426;54.118;17.948;2023-04-04T21:27:56;-2.70;99.90
18593;DHT22;9426;54.118;17.948;2023-04-04T21:33:19;-2.60;99.90
18593;DHT22;9426;54.118;17.948;2023-04-04T21:38:44;-2.70;99.90
18593;DHT22;9426;54.118;17.948;2023-04-04T21:44:08;-2.70;99.90
18593;DHT22;9426;54.118;17.948;2023-04-04T21:49:32;-2.80;99.90
18593;DHT22;9426;54.118;17.948;2023-04-04T21:54:57;-2.80;99.90
18593;DHT22;9426;54.118;17.948;2023-04-04T22:00:21;-2.70;99.90
18593;DHT22;9426;54.118;17.948;2023-04-04T22:05:44;-2.70;99.90
18593;DHT22;9426;54.118;17.948;2023-04-04T22:11:10;-2.80;99.90
18593;DHT22;9426;54.118;17.948;2023-04-04T22:16:40;-2.70;99.90
18593;DHT22;9426;54.118;17.948;2023-04-04T22:22:03;-2.80;99.90
18593;DHT22;9426;54.118;17.948;2023-04-04T22:27:29;-2.70;99.90
18593;DHT22;9426;54.118;17.948;2023-04-04T22:32:53;-2.70;99.90
18593;DHT22;9426;54.118;17.948;2023-04-04T22:38:21;-2.70;99.90
18593;DHT22;9426;54.118;17.948;2023-04-04T22:43:46;-2.90;99.90
18593;DHT22;9426;54.118;17.948;2023-04-04T22:49:10;-2.90;99.90
18593;DHT22;9426;54.118;17.948;2023-04-04T22:54:34;-2.80;99.90
18593;DHT22;9426;54.118;17.948;2023-04-04T22:59:59;-2.90;99.90
18593;DHT22;9426;54.118;17.948;2023-04-04T23:05:22;-2.80;99.90
18593;DHT22;9426;54.118;17.948;2023-04-04T23:10:46;-2.80;99.90
18593;DHT22;9426;54.118;17.948;2023-04-04T23:16:11;-2.70;99.90
18593;DHT22;9426;54.118;17.948;2023-04-04T23:21:35;-2.70;99.90
18593;DHT22;9426;54.118;17.948;2023-04-04T23:26:58;-2.50;99.90
18593;DHT22;9426;54.118;17.948;2023-04-04T23:32:23;-2.40;99.90
18593;DHT22;9426;54.118;17.948;2023-04-04T23:37:47;-2.40;99.90
18593;DHT22;9426;54.118;17.948;2023-04-04T23:43:10;-2.20;99.90
18593;DHT22;9426;54.118;17.948;2023-04-04T23:48:35;-2.20;99.90
18593;DHT22;9426;54.118;17.948;2023-04-04T23:53:59;-2.00;99.90
18593;DHT22;9426;54.118;17.948;2023-04-04T23:59:23;-1.90;99.90
